createdAt,value
2022-09-12T00:00:11.221Z,15.51
2022-09-12T00:02:42.675Z,15.58
2022-09-12T00:05:11.359Z,15.42
2022-09-12T00:07:39.963Z,15.34
2022-09-12T00:10:09.465Z,15.40
2022-09-12T00:12:38.177Z,15.40
2022-09-12T00:15:08.263Z,15.23
2022-09-12T00:17:39.801Z,15.23
2022-09-12T00:20:11.596Z,15.23
2022-09-12T00:22:40.281Z,15.28
2022-09-12T00:25:09.460Z,15.31
2022-09-12T00:27:39.626Z,15.03
2022-09-12T00:30:09.425Z,15.20
2022-09-12T00:32:39.524Z,15.31
2022-09-12T00:35:09.121Z,15.26
2022-09-12T00:37:37.801Z,15.08
2022-09-12T00:40:07.508Z,15.21
2022-09-12T00:42:36.241Z,14.99
2022-09-12T00:45:05.270Z,15.20
2022-09-12T00:47:35.069Z,14.80
2022-09-12T00:50:10.921Z,14.96
2022-09-12T00:52:45.547Z,14.77
2022-09-12T00:55:18.173Z,14.87
2022-09-12T00:57:51.589Z,15.03
2022-09-12T01:00:22.622Z,14.99
2022-09-12T01:02:55.185Z,15.02
2022-09-12T01:05:29.023Z,15.05
2022-09-12T01:07:58.591Z,15.01
2022-09-12T01:10:27.302Z,15.08
2022-09-12T01:12:56.058Z,14.97
2022-09-12T01:15:24.965Z,14.94
2022-09-12T01:18:10.036Z,14.88
2022-09-12T01:20:52.321Z,14.79
2022-09-12T01:23:55.598Z,14.79
2022-09-12T01:26:58.916Z,14.72
2022-09-12T01:29:51.058Z,14.63
2022-09-12T01:32:32.497Z,14.61
2022-09-12T01:35:10.804Z,14.56
2022-09-12T01:37:50.745Z,14.49
2022-09-12T01:40:24.955Z,14.53
2022-09-12T01:43:04.488Z,14.48
2022-09-12T01:45:41.482Z,14.52
2022-09-12T01:48:18.293Z,14.61
2022-09-12T01:50:53.058Z,14.46
2022-09-12T01:53:25.995Z,14.42
2022-09-12T01:56:01.214Z,14.45
2022-09-12T01:58:35.477Z,14.51
2022-09-12T02:01:08.192Z,14.48
2022-09-12T02:03:45.157Z,14.52
2022-09-12T02:06:20.240Z,14.53
2022-09-12T02:08:52.959Z,14.60
2022-09-12T02:11:22.672Z,14.48
2022-09-12T02:13:56.434Z,14.39
2022-09-12T02:16:31.652Z,14.37
2022-09-12T02:19:10.419Z,14.39
2022-09-12T02:21:45.837Z,14.37
2022-09-12T02:24:17.908Z,14.33
2022-09-12T02:26:51.500Z,14.36
2022-09-12T02:29:20.262Z,14.34
2022-09-12T02:31:51.024Z,14.39
2022-09-12T02:34:34.497Z,14.40
2022-09-12T02:37:08.917Z,14.44
2022-09-12T02:39:40.197Z,14.39
2022-09-12T02:42:10.510Z,14.36
2022-09-12T02:44:39.467Z,14.41
2022-09-12T02:47:14.110Z,14.40
2022-09-12T02:49:44.433Z,14.42
2022-09-12T02:52:13.515Z,14.37
2022-09-12T02:54:42.590Z,14.55
2022-09-12T02:57:22.349Z,14.53
2022-09-12T02:59:53.405Z,14.47
2022-09-12T03:02:31.896Z,14.55
2022-09-12T03:05:14.726Z,14.58
2022-09-12T03:08:20.344Z,14.60
2022-09-12T03:11:18.343Z,14.56
2022-09-12T03:13:56.026Z,14.55
2022-09-12T03:16:32.649Z,14.58
2022-09-12T03:19:09.199Z,14.61
2022-09-12T03:21:52.382Z,14.64
2022-09-12T03:24:25.843Z,14.51
2022-09-12T03:26:59.881Z,14.27
2022-09-12T03:29:29.544Z,14.17
2022-09-12T03:32:00.242Z,14.12
2022-09-12T03:34:29.516Z,14.10
2022-09-12T03:36:59.954Z,14.03
2022-09-12T03:39:28.783Z,14.12
2022-09-12T03:41:57.819Z,14.07
2022-09-12T03:44:26.916Z,14.05
2022-09-12T03:46:55.522Z,13.94
2022-09-12T03:49:24.179Z,13.99
2022-09-12T03:51:52.871Z,14.02
2022-09-12T03:54:23.195Z,14.06
2022-09-12T03:56:52.036Z,14.12
2022-09-12T03:59:20.764Z,14.10
2022-09-12T04:01:49.475Z,13.93
2022-09-12T04:04:18.113Z,13.97
2022-09-12T04:06:47.162Z,13.79
2022-09-12T04:09:15.897Z,13.76
2022-09-12T04:11:46.109Z,13.78
2022-09-12T04:14:14.871Z,13.83
2022-09-12T04:16:43.787Z,13.97
2022-09-12T04:19:13.217Z,14.00
2022-09-12T04:21:42.000Z,14.04
2022-09-12T04:24:10.740Z,14.12
2022-09-12T04:26:39.476Z,14.25
2022-09-12T04:29:11.274Z,14.30
2022-09-12T04:31:40.043Z,14.33
2022-09-12T04:34:09.437Z,14.39
2022-09-12T04:36:38.637Z,14.45
2022-09-12T04:39:07.917Z,14.35
2022-09-12T04:41:38.224Z,14.48
2022-09-12T04:44:11.921Z,14.55
2022-09-12T04:46:42.598Z,14.61
2022-09-12T04:49:11.546Z,14.60
2022-09-12T04:51:42.619Z,14.71
2022-09-12T04:54:15.246Z,14.90
2022-09-12T04:56:45.594Z,15.08
2022-09-12T04:59:17.490Z,15.41
2022-09-12T05:01:46.282Z,15.75
2022-09-12T05:04:15.606Z,16.24
2022-09-12T05:06:44.592Z,16.64
2022-09-12T05:09:14.532Z,16.76
2022-09-12T05:12:05.029Z,16.72
2022-09-12T05:14:36.918Z,16.76
2022-09-12T05:17:06.318Z,16.65
2022-09-12T05:19:35.552Z,16.50
2022-09-12T05:22:05.133Z,16.67
2022-09-12T05:24:33.951Z,16.89
2022-09-12T05:27:04.903Z,17.24
2022-09-12T05:29:34.205Z,18.20
2022-09-12T05:32:04.819Z,18.58
2022-09-12T05:34:33.514Z,19.36
2022-09-12T05:37:02.452Z,20.15
2022-09-12T05:39:31.126Z,20.86
2022-09-12T05:41:59.928Z,21.34
2022-09-12T05:44:28.680Z,21.79
2022-09-12T05:46:57.737Z,22.44
2022-09-12T05:49:28.054Z,22.74
2022-09-12T05:51:56.715Z,22.59
2022-09-12T05:54:28.292Z,23.13
2022-09-12T05:56:59.636Z,23.31
2022-09-12T05:59:28.708Z,23.24
2022-09-12T06:01:57.520Z,22.42
2022-09-12T06:04:28.188Z,21.45
2022-09-12T06:06:57.321Z,20.85
2022-09-12T06:09:26.362Z,20.34
2022-09-12T06:11:56.094Z,20.09
2022-09-12T06:14:24.881Z,20.15
2022-09-12T06:16:53.710Z,20.32
2022-09-12T06:19:23.857Z,20.65
2022-09-12T06:21:53.967Z,20.73
2022-09-12T06:24:23.286Z,20.87
2022-09-12T06:26:52.911Z,20.88
2022-09-12T06:29:22.179Z,21.07
2022-09-12T06:31:50.819Z,21.11
2022-09-12T06:34:20.107Z,21.11
2022-09-12T06:36:51.125Z,21.18
2022-09-12T06:39:23.951Z,20.49
2022-09-12T06:41:54.222Z,20.76
2022-09-12T06:44:35.206Z,20.64
2022-09-12T06:47:04.019Z,20.39
2022-09-12T06:49:33.056Z,20.35
2022-09-12T06:52:01.959Z,20.43
2022-09-12T06:54:32.226Z,20.44
2022-09-12T06:57:00.958Z,20.48
2022-09-12T06:59:29.754Z,20.63
2022-09-12T07:01:58.553Z,20.34
2022-09-12T07:04:28.067Z,20.45
2022-09-12T07:06:56.854Z,20.49
2022-09-12T07:09:26.600Z,20.18
2022-09-12T07:11:56.722Z,20.16
2022-09-12T07:14:26.214Z,20.46
2022-09-12T07:16:55.032Z,20.58
2022-09-12T07:19:24.801Z,20.75
2022-09-12T07:21:58.022Z,20.71
2022-09-12T07:24:27.669Z,20.75
2022-09-12T07:26:57.866Z,20.66
2022-09-12T07:29:42.097Z,20.76
2022-09-12T07:32:12.310Z,20.78
2022-09-12T07:34:41.030Z,20.78
2022-09-12T07:37:09.803Z,20.63
2022-09-12T07:39:39.153Z,20.74
2022-09-12T07:42:09.691Z,20.59
2022-09-12T07:44:38.413Z,20.73
2022-09-12T07:47:07.597Z,20.81
2022-09-12T07:49:36.414Z,21.10
2022-09-12T07:52:05.959Z,21.18
2022-09-12T07:54:34.828Z,21.03
2022-09-12T07:57:03.648Z,21.32
2022-09-12T07:59:52.051Z,21.01
2022-09-12T08:02:21.766Z,20.92
2022-09-12T08:04:51.613Z,20.98
2022-09-12T08:07:20.408Z,20.74
2022-09-12T08:09:49.112Z,20.65
2022-09-12T08:12:20.476Z,20.99
2022-09-12T08:14:50.646Z,21.06
2022-09-12T08:17:19.311Z,20.82
2022-09-12T08:19:48.435Z,20.79
2022-09-12T08:22:17.367Z,20.97
2022-09-12T08:24:46.001Z,21.27
2022-09-12T08:27:14.926Z,20.92
2022-09-12T08:29:43.865Z,21.03
2022-09-12T08:32:14.202Z,20.90
2022-09-12T08:34:42.941Z,21.13
2022-09-12T08:37:11.902Z,21.57
2022-09-12T08:39:40.650Z,21.63
2022-09-12T08:42:14.543Z,21.80
2022-09-12T08:44:54.767Z,21.96
2022-09-12T08:47:30.290Z,21.87
2022-09-12T08:50:07.834Z,21.82
2022-09-12T08:52:42.296Z,21.82
2022-09-12T08:55:28.860Z,21.86
2022-09-12T08:57:57.610Z,21.74
2022-09-12T09:00:32.987Z,21.84
2022-09-12T09:03:21.276Z,21.79
2022-09-12T09:05:53.354Z,21.64
2022-09-12T09:08:37.190Z,21.90
2022-09-12T09:11:19.839Z,22.14
2022-09-12T09:14:23.002Z,22.40
2022-09-12T09:16:54.320Z,22.85
2022-09-12T09:19:29.007Z,22.83
2022-09-12T09:22:02.144Z,22.61
2022-09-12T09:24:40.008Z,22.66
2022-09-12T09:27:36.812Z,22.45
2022-09-12T09:30:04.519Z,22.81
2022-09-12T09:32:38.214Z,22.99
2022-09-12T09:35:18.898Z,23.05
2022-09-12T09:38:02.615Z,22.99
2022-09-12T09:40:44.308Z,22.86
2022-09-12T09:43:23.126Z,23.04
2022-09-12T09:45:53.299Z,23.04
2022-09-12T09:48:27.180Z,22.95
2022-09-12T09:51:00.302Z,22.79
2022-09-12T09:53:38.556Z,23.02
2022-09-12T09:56:14.317Z,23.05
2022-09-12T09:58:43.768Z,23.66
2022-09-12T10:01:18.443Z,23.58
2022-09-12T10:03:51.902Z,23.74
2022-09-12T10:06:40.453Z,23.41
2022-09-12T10:09:21.596Z,23.58
2022-09-12T10:11:53.921Z,23.42
2022-09-12T10:14:35.198Z,23.31
2022-09-12T10:17:23.805Z,23.51
2022-09-12T10:20:10.421Z,23.15
2022-09-12T10:22:49.120Z,22.81
2022-09-12T10:25:20.079Z,22.65
2022-09-12T10:27:55.333Z,22.40
2022-09-12T10:30:28.739Z,21.78
2022-09-12T10:33:05.502Z,21.38
2022-09-12T10:35:46.584Z,21.14
2022-09-12T10:38:22.837Z,20.74
2022-09-12T10:40:59.996Z,20.69
2022-09-12T10:43:31.423Z,20.69
2022-09-12T10:46:01.913Z,21.30
2022-09-12T10:48:32.749Z,21.08
2022-09-12T10:51:02.417Z,20.46
2022-09-12T10:53:40.794Z,20.53
2022-09-12T10:56:13.904Z,20.31
2022-09-12T10:58:55.218Z,20.19
2022-09-12T11:01:36.783Z,19.76
2022-09-12T11:04:27.887Z,19.64
2022-09-12T11:07:16.469Z,19.81
2022-09-12T11:09:55.331Z,19.79
2022-09-12T11:12:36.012Z,19.81
2022-09-12T11:15:18.365Z,19.85
2022-09-12T11:17:55.760Z,19.91
2022-09-12T11:20:52.995Z,20.07
2022-09-12T11:23:44.554Z,20.61
2022-09-12T11:26:26.825Z,21.06
2022-09-12T11:29:04.580Z,20.99
2022-09-12T11:31:47.987Z,21.06
2022-09-12T11:34:28.362Z,21.47
2022-09-12T11:37:17.417Z,22.00
2022-09-12T11:39:54.734Z,22.68
2022-09-12T11:42:31.463Z,23.21
2022-09-12T11:45:09.509Z,22.45
2022-09-12T11:47:39.303Z,22.81
2022-09-12T11:50:26.915Z,22.79
2022-09-12T11:53:01.646Z,22.93
2022-09-12T11:55:39.226Z,22.30
2022-09-12T11:58:10.708Z,21.88
2022-09-12T12:00:44.308Z,21.63
2022-09-12T12:03:19.536Z,21.57
2022-09-12T12:05:55.048Z,21.29
2022-09-12T12:08:25.582Z,20.92
2022-09-12T12:10:57.739Z,20.71
2022-09-12T12:13:31.164Z,20.64
2022-09-12T12:16:05.154Z,20.40
2022-09-12T12:18:35.863Z,20.31
2022-09-12T12:21:23.360Z,20.17
2022-09-12T12:24:06.219Z,20.53
2022-09-12T12:26:57.508Z,21.79
2022-09-12T12:29:44.063Z,22.35
2022-09-12T12:32:26.875Z,22.77
2022-09-12T12:35:37.449Z,23.64
2022-09-12T12:38:27.577Z,24.05
2022-09-12T12:41:16.672Z,24.53
2022-09-12T12:43:46.303Z,23.93
2022-09-12T12:46:17.994Z,23.71
2022-09-12T12:48:55.287Z,23.49
2022-09-12T12:51:45.605Z,23.43
2022-09-12T12:54:32.033Z,22.78
2022-09-12T12:57:19.011Z,22.07
2022-09-12T12:59:50.490Z,22.24
2022-09-12T13:02:28.521Z,22.48
2022-09-12T13:04:58.310Z,22.34
2022-09-12T13:07:31.656Z,21.78
2022-09-12T13:10:02.883Z,21.33
2022-09-12T13:12:35.034Z,21.14
2022-09-12T13:15:05.883Z,20.96
2022-09-12T13:17:39.561Z,20.81
2022-09-12T13:20:28.727Z,20.73
2022-09-12T13:22:58.982Z,20.83
2022-09-12T13:25:31.200Z,20.96
2022-09-12T13:28:07.484Z,20.81
2022-09-12T13:30:38.596Z,20.61
2022-09-12T13:33:21.979Z,20.43
2022-09-12T13:36:09.952Z,20.39
2022-09-12T13:38:49.578Z,20.21
2022-09-12T13:41:35.221Z,20.11
2022-09-12T13:44:05.356Z,19.94
2022-09-12T13:46:36.018Z,19.79
2022-09-12T13:49:18.055Z,19.82
2022-09-12T13:51:47.220Z,19.90
2022-09-12T13:54:24.324Z,19.93
2022-09-12T13:56:53.240Z,19.85
2022-09-12T13:59:22.072Z,19.88
2022-09-12T14:01:50.863Z,19.99
2022-09-12T14:04:41.359Z,20.03
2022-09-12T14:07:15.326Z,20.10
2022-09-12T14:09:47.339Z,20.07
2022-09-12T14:12:25.371Z,20.12
2022-09-12T14:14:55.003Z,19.88
2022-09-12T14:17:30.017Z,19.91
2022-09-12T14:20:04.024Z,19.82
2022-09-12T14:22:36.477Z,19.60
2022-09-12T14:25:10.476Z,19.53
2022-09-12T14:27:45.975Z,19.41
2022-09-12T14:30:24.641Z,19.27
2022-09-12T14:33:18.223Z,19.26
2022-09-12T14:35:49.003Z,19.16
2022-09-12T14:38:25.955Z,19.07
2022-09-12T14:41:01.412Z,18.96
2022-09-12T14:43:32.629Z,19.00
2022-09-12T14:46:04.718Z,19.00
2022-09-12T14:48:37.707Z,19.02
2022-09-12T14:51:08.154Z,18.94
2022-09-12T14:53:39.473Z,18.98
2022-09-12T14:56:10.826Z,19.02
2022-09-12T14:58:41.018Z,19.08
2022-09-12T15:01:28.220Z,19.16
2022-09-12T15:03:57.833Z,19.26
2022-09-12T15:06:30.458Z,19.30
2022-09-12T15:09:02.136Z,19.31
2022-09-12T15:11:30.990Z,19.38
2022-09-12T15:13:59.780Z,19.43
2022-09-12T15:16:28.586Z,19.51
2022-09-12T15:18:57.295Z,19.56
2022-09-12T15:21:26.421Z,19.61
2022-09-12T15:23:56.788Z,19.61
2022-09-12T15:26:27.774Z,19.66
2022-09-12T15:28:56.562Z,19.63
2022-09-12T15:31:27.338Z,19.59
2022-09-12T15:33:57.970Z,19.68
2022-09-12T15:36:29.167Z,19.56
2022-09-12T15:38:59.428Z,19.63
2022-09-12T15:41:33.066Z,19.57
2022-09-12T15:44:01.970Z,19.49
2022-09-12T15:46:31.069Z,19.57
2022-09-12T15:49:00.139Z,19.56
2022-09-12T15:51:29.113Z,19.38
2022-09-12T15:53:59.648Z,19.37
2022-09-12T15:56:28.545Z,19.28
2022-09-12T15:58:59.864Z,19.24
2022-09-12T16:01:29.983Z,19.16
2022-09-12T16:03:59.202Z,19.11
2022-09-12T16:06:33.568Z,19.15
2022-09-12T16:09:05.438Z,19.08
2022-09-12T16:11:34.407Z,19.08
2022-09-12T16:14:03.951Z,19.00
2022-09-12T16:16:33.219Z,18.97
2022-09-12T16:19:02.149Z,18.99
2022-09-12T16:21:31.267Z,18.94
2022-09-12T16:24:00.111Z,18.85
2022-09-12T16:26:30.553Z,18.75
2022-09-12T16:29:00.525Z,18.71
2022-09-12T16:31:31.274Z,18.65
2022-09-12T16:34:00.243Z,18.62
2022-09-12T16:36:29.211Z,18.52
2022-09-12T16:38:58.082Z,18.44
2022-09-12T16:41:27.352Z,18.39
2022-09-12T16:43:57.765Z,18.34
2022-09-12T16:46:28.879Z,18.29
2022-09-12T16:48:59.544Z,18.25
2022-09-12T16:51:31.762Z,18.16
2022-09-12T16:54:00.843Z,18.05
2022-09-12T16:56:29.860Z,17.88
2022-09-12T16:59:00.182Z,17.83
2022-09-12T17:01:29.212Z,17.89
2022-09-12T17:03:59.936Z,17.81
2022-09-12T17:06:29.397Z,17.81
2022-09-12T17:09:03.107Z,17.85
2022-09-12T17:11:34.059Z,17.82
2022-09-12T17:14:07.422Z,17.76
2022-09-12T17:16:38.469Z,17.75
2022-09-12T17:19:08.676Z,17.67
2022-09-12T17:21:37.799Z,17.66
2022-09-12T17:24:07.133Z,17.54
2022-09-12T17:26:36.064Z,17.49
2022-09-12T17:29:06.581Z,17.40
2022-09-12T17:31:35.641Z,17.32
2022-09-12T17:34:05.151Z,17.24
2022-09-12T17:36:34.352Z,17.16
2022-09-12T17:39:04.699Z,16.95
2022-09-12T17:41:34.009Z,16.87
2022-09-12T17:44:03.841Z,16.78
2022-09-12T17:46:36.055Z,16.70
2022-09-12T17:49:07.239Z,16.59
2022-09-12T17:51:36.984Z,16.53
2022-09-12T17:54:09.520Z,16.48
2022-09-12T17:56:38.727Z,16.39
2022-09-12T17:59:09.127Z,16.30
2022-09-12T18:01:56.495Z,16.27
2022-09-12T18:04:25.181Z,16.23
2022-09-12T18:06:54.265Z,16.20
2022-09-12T18:09:25.323Z,16.20
2022-09-12T18:11:54.645Z,16.14
2022-09-12T18:14:25.026Z,16.16
2022-09-12T18:17:00.285Z,16.17
2022-09-12T18:19:29.669Z,16.17
2022-09-12T18:21:58.845Z,16.14
2022-09-12T18:24:27.856Z,16.07
2022-09-12T18:26:57.902Z,16.08
2022-09-12T18:29:28.174Z,16.04
2022-09-12T18:31:58.507Z,15.98
2022-09-12T18:34:27.453Z,16.02
2022-09-12T18:36:56.412Z,16.02
2022-09-12T18:39:27.743Z,16.07
2022-09-12T18:41:57.489Z,16.02
2022-09-12T18:44:26.387Z,16.01
2022-09-12T18:46:55.265Z,16.03
2022-09-12T18:49:25.871Z,16.04
2022-09-12T18:51:54.774Z,15.94
2022-09-12T18:54:23.660Z,15.81
2022-09-12T18:56:52.564Z,15.66
2022-09-12T18:59:21.257Z,15.58
2022-09-12T19:01:50.429Z,15.51
2022-09-12T19:04:19.502Z,15.47
2022-09-12T19:06:50.620Z,15.38
2022-09-12T19:09:21.913Z,15.48
2022-09-12T19:11:51.018Z,15.52
2022-09-12T19:14:22.688Z,15.63
2022-09-12T19:16:52.315Z,15.74
2022-09-12T19:19:21.556Z,15.80
2022-09-12T19:21:51.751Z,15.79
2022-09-12T19:24:21.951Z,15.70
2022-09-12T19:26:51.094Z,15.55
2022-09-12T19:29:20.174Z,15.33
2022-09-12T19:31:49.213Z,15.09
2022-09-12T19:34:18.248Z,15.00
2022-09-12T19:36:47.617Z,14.87
2022-09-12T19:39:19.897Z,14.68
2022-09-12T19:41:49.446Z,14.64
2022-09-12T19:44:19.407Z,14.62
2022-09-12T19:46:48.477Z,14.56
2022-09-12T19:49:17.406Z,14.50
2022-09-12T19:51:46.011Z,14.50
2022-09-12T19:54:14.813Z,14.53
2022-09-12T19:56:45.046Z,14.49
2022-09-12T19:59:13.895Z,14.48
2022-09-12T20:01:42.888Z,14.44
2022-09-12T20:04:12.006Z,14.36
2022-09-12T20:06:40.739Z,14.30
2022-09-12T20:09:09.427Z,14.01
2022-09-12T20:11:38.232Z,13.98
2022-09-12T20:14:08.476Z,13.79
2022-09-12T20:16:37.155Z,13.75
2022-09-12T20:19:08.671Z,13.69
2022-09-12T20:21:38.195Z,13.64
2022-09-12T20:24:08.671Z,13.58
2022-09-12T20:26:38.025Z,13.57
2022-09-12T20:29:08.512Z,13.56
2022-09-12T20:31:38.800Z,13.71
2022-09-12T20:34:08.208Z,13.80
2022-09-12T20:36:36.837Z,13.84
2022-09-12T20:39:06.098Z,13.85
2022-09-12T20:41:36.608Z,13.85
2022-09-12T20:44:05.317Z,13.87
2022-09-12T20:46:35.666Z,13.84
2022-09-12T20:49:04.905Z,13.80
2022-09-12T20:51:33.834Z,13.83
2022-09-12T20:54:04.360Z,13.78
2022-09-12T20:56:34.713Z,13.79
2022-09-12T20:59:03.476Z,13.69
2022-09-12T21:01:33.086Z,13.63
2022-09-12T21:04:03.698Z,13.52
2022-09-12T21:06:33.032Z,13.45
2022-09-12T21:09:01.778Z,13.50
2022-09-12T21:11:30.970Z,13.45
2022-09-12T21:13:59.709Z,13.43
2022-09-12T21:16:28.582Z,13.42
2022-09-12T21:19:00.247Z,13.38
2022-09-12T21:21:30.288Z,13.31
2022-09-12T21:24:00.362Z,13.35
2022-09-12T21:26:29.158Z,13.38
2022-09-12T21:28:57.973Z,13.33
2022-09-12T21:31:27.070Z,13.35
2022-09-12T21:33:56.008Z,13.29
2022-09-12T21:36:25.762Z,13.34
2022-09-12T21:38:59.280Z,13.43
2022-09-12T21:41:28.900Z,13.43
2022-09-12T21:43:57.584Z,13.51
2022-09-12T21:46:26.422Z,13.28
2022-09-12T21:48:55.095Z,13.45
2022-09-12T21:51:23.763Z,13.49
2022-09-12T21:53:52.440Z,13.40
2022-09-12T21:56:22.621Z,13.35
2022-09-12T21:58:51.613Z,13.38
2022-09-12T22:01:20.529Z,13.36
2022-09-12T22:03:50.233Z,13.42
2022-09-12T22:06:22.389Z,13.40
2022-09-12T22:08:51.362Z,13.42
2022-09-12T22:11:20.713Z,13.36
2022-09-12T22:13:50.748Z,13.34
2022-09-12T22:16:19.728Z,13.22
2022-09-12T22:18:48.603Z,13.11
2022-09-12T22:21:20.847Z,13.02
2022-09-12T22:24:07.012Z,12.98
2022-09-12T22:26:43.410Z,12.87
2022-09-12T22:29:14.767Z,12.77
2022-09-12T22:31:43.783Z,12.67
2022-09-12T22:34:12.380Z,12.56
2022-09-12T22:36:41.570Z,12.50
2022-09-12T22:39:10.378Z,12.43
2022-09-12T22:41:39.245Z,12.49
2022-09-12T22:44:08.007Z,12.60
2022-09-12T22:46:39.529Z,12.63
2022-09-12T22:49:08.822Z,12.76
2022-09-12T22:51:37.621Z,12.78
2022-09-12T22:54:07.024Z,12.73
2022-09-12T22:56:36.061Z,12.86
2022-09-12T22:59:04.856Z,12.79
2022-09-12T23:01:33.808Z,12.78
2022-09-12T23:04:05.135Z,12.83
2022-09-12T23:06:33.939Z,12.80
2022-09-12T23:09:02.641Z,12.80
2022-09-12T23:11:31.413Z,12.82
2022-09-12T23:14:00.183Z,12.82
2022-09-12T23:16:31.312Z,12.84
2022-09-12T23:19:00.499Z,12.94
2022-09-12T23:21:30.696Z,12.85
2022-09-12T23:23:59.450Z,12.81
2022-09-12T23:26:29.745Z,12.79
2022-09-12T23:29:00.391Z,12.82
2022-09-12T23:31:31.251Z,12.84
2022-09-12T23:34:02.732Z,12.80
2022-09-12T23:36:33.535Z,12.81
2022-09-12T23:39:02.545Z,12.84
2022-09-12T23:41:31.406Z,12.71
2022-09-12T23:44:00.876Z,12.86
2022-09-12T23:46:29.599Z,12.78
2022-09-12T23:49:01.390Z,12.52
2022-09-12T23:51:30.446Z,12.39
2022-09-12T23:54:00.607Z,12.28
2022-09-12T23:56:29.282Z,12.16
2022-09-12T23:58:57.981Z,12.15
